El Nihuil, Argentina
Current Conditions -  °F | °C
As of 11:00 PM on Saturday 22 Nov 2014 (Local Time) from SCIC Reporting Station
Clear Clear  
Wind Chill: 18°   Ceiling: Unl
Heat Index: 18°   Visibility: 6mi
Dew Point:   Wind: 9mph
Humidity: 52%   Direction: 270°W
Pressure: 29.94"   Gusts: NA
Location:  35.03°S, 68.67°W
Report Text: SCIC 230200Z AUTO 27008KT 9999 NCD 18/08 Q1014
Loading
Personal Weather Stations






























Interactive Weather Map New forecast layout! Learn more

10-Day Weather Forecast

Advertisements
Track Severe Weather on mobile